Skarberg — LMCU — position and weather

sailwx.info

Track history (hours):
 
Tides and Currents Weather Stations Pressure Air Temp Water Temp Dewpoint Dewpoint Depression Visibility Wind Speed Wind Dir Waves Ship Positions

Skarberg

Last reported at 2018-Feb-28 18:35 UTC. Time now 2018-Jun-21 22:05 UTC.
Position N 69°41' E 018°59'.
Warning: this ship's position is months out of date.

Type: Fishing. MMSI: 257586600.

Date/timePositionNaut miles runAvg speedWind from/ knotsBaromVisibWave heightAir tempDewpointWater temp
2018-Feb-28 18:35N 69°41' E 018°59'0 0.0
2018-Feb-28 18:06N 69°41' E 018°59'0 0.0
2018-Feb-28 18:00N 69°41' E 018°59'0 0.0
2018-Feb-28 17:30N 69°41' E 018°59'0 0.0
2018-Feb-28 16:59N 69°41' E 018°59'0 0.0
2018-Feb-28 16:30N 69°41' E 018°59'0 0.0
2018-Feb-28 16:00N 69°41' E 018°59'0 0.0
2018-Feb-28 15:30N 69°41' E 018°59'0 0.0
2018-Feb-28 15:00N 69°41' E 018°59'0 0.0
2018-Feb-28 14:30N 69°41' E 018°59'0 0.0
2018-Feb-28 14:00N 69°41' E 018°59'0 0.0
2018-Feb-28 13:30N 69°41' E 018°59'0 0.0
2018-Feb-28 13:00N 69°41' E 018°59'0 0.0
2018-Feb-28 12:28N 69°41' E 018°59'0 0.0
2018-Feb-28 11:59N 69°41' E 018°59'0 0.0
2018-Feb-28 11:30N 69°41' E 018°59'0 0.0
2018-Feb-28 11:00N 69°41' E 018°59'0 0.0
2018-Feb-28 10:30N 69°41' E 018°59'0 0.0
2018-Feb-28 10:00N 69°41' E 018°59'0 0.0
2018-Feb-28 09:30N 69°41' E 018°59'0 0.0
2018-Feb-28 09:00N 69°41' E 018°59'1 2.6
2018-Feb-28 08:30N 69°39' E 018°58'0 0.0
2018-Feb-28 08:00N 69°39' E 018°58'0 0.0
2018-Feb-28 07:30N 69°39' E 018°58'0 0.1
2018-Feb-28 06:58N 69°39' E 018°58'3 7.3
2018-Feb-28 06:30N 69°42' E 019°03'4 7.8
2018-Feb-28 06:00N 69°46' E 019°09'4 7.6
2018-Feb-28 05:30N 69°48' E 019°18'76 7.4
2018-Feb-27 19:13N 70°28' E 022°27'3 7.9
2018-Feb-27 18:49N 70°29' E 022°36'7 7.9
2018-Feb-27 17:57N 70°31' E 022°56'7 8.1
2018-Feb-27 17:09N 70°35' E 023°10'2 8.2
2018-Feb-27 16:52N 70°37' E 023°15'4 8.7
2018-Feb-27 16:25N 70°40' E 023°23'4 8.5
2018-Feb-27 16:00N 70°42' E 023°31'  
Track history (hours):
 
Tides and Currents Weather Stations Pressure Air Temp Water Temp Dewpoint Dewpoint Depression Visibility Wind Speed Wind Dir Waves Ship Positions

Skarberg

Last reported at 2018-Feb-28 18:35 UTC. Time now 2018-Jun-21 22:05 UTC.
Position N 69°41' E 018°59'.
Warning: this ship's position is months out of date.

Type: Fishing. MMSI: 257586600.

Date/timePositionNaut miles runAvg speedWind from/ knotsBaromVisibWave heightAir tempDewpointWater temp
2018-Feb-28 18:35N 69°41' E 018°59'0 0.0
2018-Feb-28 18:06N 69°41' E 018°59'0 0.0
2018-Feb-28 18:00N 69°41' E 018°59'0 0.0
2018-Feb-28 17:30N 69°41' E 018°59'0 0.0
2018-Feb-28 16:59N 69°41' E 018°59'0 0.0
2018-Feb-28 16:30N 69°41' E 018°59'0 0.0
2018-Feb-28 16:00N 69°41' E 018°59'0 0.0
2018-Feb-28 15:30N 69°41' E 018°59'0 0.0
2018-Feb-28 15:00N 69°41' E 018°59'0 0.0
2018-Feb-28 14:30N 69°41' E 018°59'0 0.0
2018-Feb-28 14:00N 69°41' E 018°59'0 0.0
2018-Feb-28 13:30N 69°41' E 018°59'0 0.0
2018-Feb-28 13:00N 69°41' E 018°59'0 0.0
2018-Feb-28 12:28N 69°41' E 018°59'0 0.0
2018-Feb-28 11:59N 69°41' E 018°59'0 0.0
2018-Feb-28 11:30N 69°41' E 018°59'0 0.0
2018-Feb-28 11:00N 69°41' E 018°59'0 0.0
2018-Feb-28 10:30N 69°41' E 018°59'0 0.0
2018-Feb-28 10:00N 69°41' E 018°59'0 0.0
2018-Feb-28 09:30N 69°41' E 018°59'0 0.0
2018-Feb-28 09:00N 69°41' E 018°59'1 2.6
2018-Feb-28 08:30N 69°39' E 018°58'0 0.0
2018-Feb-28 08:00N 69°39' E 018°58'0 0.0
2018-Feb-28 07:30N 69°39' E 018°58'0 0.1
2018-Feb-28 06:58N 69°39' E 018°58'3 7.3
2018-Feb-28 06:30N 69°42' E 019°03'4 7.8
2018-Feb-28 06:00N 69°46' E 019°09'4 7.6
2018-Feb-28 05:30N 69°48' E 019°18'76 7.4
2018-Feb-27 19:13N 70°28' E 022°27'3 7.9
2018-Feb-27 18:49N 70°29' E 022°36'7 7.9
2018-Feb-27 17:57N 70°31' E 022°56'7 8.1
2018-Feb-27 17:09N 70°35' E 023°10'2 8.2
2018-Feb-27 16:52N 70°37' E 023°15'4 8.7
2018-Feb-27 16:25N 70°40' E 023°23'4 8.5
2018-Feb-27 16:00N 70°42' E 023°31'  

Dump ship's entire track history